Time;durP1;ratioP1;P1;durP2;ratioP2;P2;SDS_P1;SDS_P2;PMS_P1;PMS_P2;Temp;Humidity;BMP_temperature;BMP_pressure;BME280_temperature;BME280_humidity;BME280_pressure;Samples;Min_cycle;Max_cycle;Signal;HPM_P1;HPM_P2
2021/12/02 00:01:04;;;;;;;1.10;0.70;;;8.40;99.90;;;;;;4960444;28;20455;-63
2021/12/02 00:03:29;;;;;;;1.60;1.00;;;8.40;99.90;;;;;;4981449;28;20846;-63
2021/12/02 00:05:55;;;;;;;0.93;0.70;;;8.30;99.90;;;;;;4988404;28;20626;-63
2021/12/02 00:08:21;;;;;;;1.60;0.70;;;8.30;99.90;;;;;;4997289;28;20741;-63
2021/12/02 00:10:47;;;;;;;1.97;0.90;;;8.10;99.90;;;;;;4997134;28;20171;-62
2021/12/02 00:13:12;;;;;;;1.17;0.87;;;8.20;99.90;;;;;;4979434;28;20167;-66
2021/12/02 00:15:51;;;;;;;2.97;1.00;;;8.30;99.90;;;;;;4979249;28;20641;-64
2021/12/02 00:24:02;;;;;;;1.67;1.40;;;7.90;99.90;;;;;;4976814;28;20166;-64
2021/12/02 00:26:29;;;;;;;1.33;0.80;;;8.00;99.90;;;;;;4960259;28;20440;-64
2021/12/02 00:28:57;;;;;;;1.80;1.30;;;7.80;99.90;;;;;;4959144;28;20837;-64
2021/12/02 00:31:28;;;;;;;1.50;0.77;;;8.00;99.90;;;;;;4959456;28;20409;-64
2021/12/02 00:33:57;;;;;;;2.07;0.90;;;8.10;99.90;;;;;;4976459;28;20420;-64
2021/12/02 00:36:25;;;;;;;1.00;0.90;;;8.10;99.90;;;;;;4976740;28;20449;-62
2021/12/02 00:38:52;;;;;;;1.20;0.90;;;8.10;99.90;;;;;;4959198;28;20440;-64
2021/12/02 00:41:20;;;;;;;1.10;0.60;;;8.00;99.90;;;;;;4959258;28;20418;-64
2021/12/02 00:43:48;;;;;;;1.40;0.80;;;8.10;99.90;;;;;;4976670;28;20753;-64
2021/12/02 00:46:17;;;;;;;1.40;0.60;;;7.90;99.90;;;;;;4976701;28;20497;-64
2021/12/02 00:48:43;;;;;;;7.90;1.00;;;7.80;99.90;;;;;;4976220;28;20428;-64
2021/12/02 00:51:10;;;;;;;1.20;0.90;;;7.90;99.90;;;;;;4959391;28;20466;-64
2021/12/02 00:53:42;;;;;;;2.03;0.90;;;7.80;99.90;;;;;;4959272;28;20418;-64
2021/12/02 00:56:11;;;;;;;2.50;0.80;;;7.80;99.90;;;;;;4976478;28;20474;-64
2021/12/02 00:58:37;;;;;;;1.83;1.03;;;7.70;99.90;;;;;;4976248;28;20975;-64
2021/12/02 01:01:03;;;;;;;2.30;0.90;;;7.80;99.90;;;;;;4958381;28;20411;-64
2021/12/02 01:03:37;;;;;;;2.00;0.90;;;7.70;99.90;;;;;;4958936;28;20418;-64
2021/12/02 01:06:05;;;;;;;1.43;0.80;;;7.70;99.90;;;;;;4976864;28;20506;-64
2021/12/02 01:08:36;;;;;;;1.50;0.90;;;7.60;99.90;;;;;;4958772;28;20433;-64
2021/12/02 01:11:06;;;;;;;1.30;0.83;;;7.50;99.90;;;;;;4976460;28;20390;-64
2021/12/02 01:13:32;;;;;;;3.63;0.90;;;7.50;99.90;;;;;;4959509;28;20904;-63
2021/12/02 01:15:58;;;;;;;2.40;0.70;;;7.50;99.90;;;;;;4975956;28;20418;-63
2021/12/02 01:18:24;;;;;;;2.13;1.20;;;7.30;99.90;;;;;;4958256;28;20178;-63
2021/12/02 01:20:51;;;;;;;2.30;0.90;;;7.30;99.90;;;;;;4976325;28;20398;-64
2021/12/02 01:23:20;;;;;;;2.20;1.30;;;7.40;99.90;;;;;;4975884;28;20411;-64
2021/12/02 01:25:53;;;;;;;3.23;0.97;;;7.60;99.90;;;;;;4975596;28;20528;-64
2021/12/02 01:28:22;;;;;;;1.13;0.73;;;7.40;99.90;;;;;;4975793;28;20427;-63
2021/12/02 01:30:51;;;;;;;1.80;1.20;;;7.60;99.90;;;;;;4972318;28;20765;-63
2021/12/02 01:33:19;;;;;;;1.23;0.90;;;7.70;99.90;;;;;;4942508;28;20410;-63
2021/12/02 01:35:49;;;;;;;5.00;1.20;;;7.70;99.90;;;;;;4975390;28;20833;-64
2021/12/02 01:41:48;;;;;;;1.73;1.00;;;7.50;99.90;;;;;;4975362;28;20382;-63
2021/12/02 01:44:15;;;;;;;1.50;0.93;;;7.50;99.90;;;;;;4975375;28;20505;-63
2021/12/02 01:46:42;;;;;;;1.17;0.70;;;7.60;99.90;;;;;;4975117;28;20412;-63
2021/12/02 01:49:12;;;;;;;1.73;1.00;;;7.80;99.90;;;;;;4975171;28;20460;-63
2021/12/02 01:55:17;;;;;;;0.90;0.77;;;7.90;99.90;;;;;;4975033;28;20400;-62
2021/12/02 01:58:04;;;;;;;3.17;1.00;;;8.00;99.90;;;;;;4975320;28;20390;-62
2021/12/02 02:00:41;;;;;;;2.30;0.90;;;7.80;99.90;;;;;;4957623;28;20441;-63
2021/12/02 02:03:09;;;;;;;0.97;0.87;;;7.50;99.90;;;;;;4958099;28;20412;-63
2021/12/02 02:05:36;;;;;;;2.37;0.93;;;7.40;99.90;;;;;;4957626;28;20458;-63
2021/12/02 02:08:10;;;;;;;2.20;1.00;;;7.40;99.90;;;;;;4957817;28;20411;-63
2021/12/02 02:10:40;;;;;;;1.33;0.73;;;7.30;99.90;;;;;;4957952;28;20403;-64
2021/12/02 02:13:08;;;;;;;3.93;1.40;;;7.20;99.90;;;;;;4957886;28;20406;-63
2021/12/02 02:15:35;;;;;;;1.20;0.83;;;7.00;99.90;;;;;;4957750;28;20426;-63
2021/12/02 02:18:09;;;;;;;2.40;0.90;;;6.90;99.90;;;;;;4957739;28;20440;-64
2021/12/02 02:21:03;;;;;;;1.43;0.80;;;7.00;99.90;;;;;;5014053;23;20503;-60
2021/12/02 02:23:31;;;;;;;1.80;1.00;;;6.90;99.90;;;;;;4976196;28;20408;-61
2021/12/02 02:25:58;;;;;;;2.53;0.90;;;6.80;99.90;;;;;;4994601;28;20449;-62
2021/12/02 02:28:25;;;;;;;1.40;0.77;;;6.90;99.90;;;;;;4995082;28;20419;-62
2021/12/02 02:30:50;;;;;;;0.77;0.63;;;6.80;99.90;;;;;;4994095;28;20429;-62
2021/12/02 02:33:19;;;;;;;1.70;0.70;;;6.70;99.90;;;;;;4993867;28;20464;-61
2021/12/02 02:35:46;;;;;;;1.27;0.90;;;6.70;99.90;;;;;;4993540;28;20408;-61
2021/12/02 02:38:14;;;;;;;1.00;0.70;;;6.70;99.90;;;;;;4994112;28;20942;-62
2021/12/02 02:40:42;;;;;;;2.57;0.70;;;6.90;99.90;;;;;;4992758;28;20426;-62
2021/12/02 02:43:10;;;;;;;2.80;0.70;;;7.10;99.90;;;;;;4998200;28;20425;-62
2021/12/02 02:45:37;;;;;;;1.57;0.60;;;6.90;99.90;;;;;;4998133;28;20948;-62
2021/12/02 02:48:03;;;;;;;1.30;0.60;;;7.00;99.90;;;;;;4997592;28;20547;-62
2021/12/02 02:50:33;;;;;;;1.43;0.80;;;7.10;99.90;;;;;;5007999;28;20927;-62
2021/12/02 02:53:17;;;;;;;1.03;0.60;;;7.00;99.90;;;;;;4999598;28;20788;-62
2021/12/02 02:55:52;;;;;;;2.10;0.63;;;7.10;99.90;;;;;;5017335;28;20477;-61
2021/12/02 03:00:56;;;;;;;1.13;0.73;;;7.10;99.90;;;;;;5017185;28;20424;-61
2021/12/02 03:08:32;;;;;;;0.90;0.80;;;6.90;99.90;;;;;;5017147;28;20149;-62
2021/12/02 03:10:59;;;;;;;0.70;0.60;;;6.80;99.90;;;;;;4999252;28;20415;-62
2021/12/02 03:13:46;;;;;;;0.90;0.70;;;6.80;99.90;;;;;;5016941;28;20407;-62
2021/12/02 03:18:55;;;;;;;0.80;0.70;;;6.80;99.90;;;;;;5016481;28;20422;-60
2021/12/02 03:21:22;;;;;;;1.90;0.70;;;6.80;99.90;;;;;;5016279;28;20430;-60
2021/12/02 03:23:54;;;;;;;1.77;1.00;;;6.60;99.90;;;;;;5013413;28;20164;-61
2021/12/02 03:26:20;;;;;;;1.20;0.60;;;6.50;99.90;;;;;;5016859;28;20392;-62
2021/12/02 03:28:48;;;;;;;1.83;1.00;;;6.50;99.90;;;;;;4999095;28;20397;-62
2021/12/02 03:31:14;;;;;;;1.63;1.00;;;6.50;99.90;;;;;;5016580;28;20407;-61
2021/12/02 03:33:41;;;;;;;1.77;0.80;;;6.60;99.90;;;;;;5016189;28;20486;-61
2021/12/02 03:36:07;;;;;;;3.10;0.90;;;6.50;99.90;;;;;;5016011;28;20413;-61
2021/12/02 03:38:33;;;;;;;1.20;0.70;;;6.40;99.90;;;;;;5016590;28;20397;-61
2021/12/02 03:40:59;;;;;;;1.30;0.90;;;6.50;99.90;;;;;;4998915;28;20403;-61
2021/12/02 03:43:27;;;;;;;1.30;0.63;;;6.50;99.90;;;;;;4998803;28;20257;-61
2021/12/02 03:45:53;;;;;;;1.77;0.63;;;6.60;99.90;;;;;;5016168;28;20984;-60
2021/12/02 03:48:19;;;;;;;1.37;0.70;;;6.70;99.90;;;;;;5016203;28;20442;-60
2021/12/02 03:50:44;;;;;;;1.37;0.90;;;6.60;99.90;;;;;;4998391;28;20444;-59
2021/12/02 03:53:10;;;;;;;2.87;0.67;;;6.70;99.90;;;;;;4997408;28;20255;-61
2021/12/02 03:55:36;;;;;;;2.27;0.87;;;6.70;99.90;;;;;;5016221;28;20168;-61
2021/12/02 03:58:01;;;;;;;3.00;0.80;;;6.60;99.90;;;;;;5016048;28;20238;-62
2021/12/02 04:00:27;;;;;;;1.40;0.70;;;6.60;99.90;;;;;;4998314;28;20273;-61
2021/12/02 04:02:53;;;;;;;1.87;0.70;;;6.60;99.90;;;;;;5015935;28;20168;-62
2021/12/02 04:05:18;;;;;;;1.67;0.80;;;6.70;99.90;;;;;;5015515;28;20188;-60
2021/12/02 04:07:44;;;;;;;1.73;0.87;;;6.70;99.90;;;;;;5016118;28;20178;-61
2021/12/02 04:10:09;;;;;;;2.60;0.70;;;6.80;99.90;;;;;;5016327;28;20211;-60
2021/12/02 04:12:55;;;;;;;1.20;0.67;;;6.70;99.90;;;;;;5015838;28;20172;-61
2021/12/02 04:15:27;;;;;;;0.80;0.67;;;6.60;99.90;;;;;;5015897;28;20320;-62
2021/12/02 04:17:53;;;;;;;3.47;0.80;;;6.80;99.90;;;;;;5015634;28;20393;-62
2021/12/02 04:20:23;;;;;;;2.10;0.80;;;6.90;99.90;;;;;;5014923;28;20552;-60
2021/12/02 04:22:53;;;;;;;1.00;0.63;;;7.00;99.90;;;;;;5015435;28;20175;-60
2021/12/02 04:25:20;;;;;;;0.93;0.60;;;6.90;99.90;;;;;;5015816;28;20476;-60
2021/12/02 04:27:47;;;;;;;2.23;0.80;;;6.80;99.90;;;;;;4998197;28;20407;-61
2021/12/02 04:30:20;;;;;;;2.77;0.80;;;6.60;99.90;;;;;;4997943;28;20442;-62
2021/12/02 04:32:47;;;;;;;1.23;0.60;;;6.50;99.90;;;;;;5015024;28;20387;-61
2021/12/02 04:35:13;;;;;;;0.90;0.50;;;6.70;99.90;;;;;;5015044;28;20914;-62
2021/12/02 04:37:39;;;;;;;0.90;0.60;;;6.80;99.90;;;;;;5015245;28;20441;-62
2021/12/02 04:40:06;;;;;;;1.00;0.80;;;6.90;99.90;;;;;;4997629;28;20949;-61
2021/12/02 04:42:33;;;;;;;0.73;0.63;;;7.00;99.90;;;;;;5015411;28;20399;-62
2021/12/02 04:44:59;;;;;;;3.77;1.07;;;7.10;99.90;;;;;;5014926;28;20440;-61
2021/12/02 04:47:25;;;;;;;0.90;0.70;;;7.20;99.90;;;;;;5014931;28;20416;-62
2021/12/02 04:49:50;;;;;;;1.03;0.60;;;7.00;99.90;;;;;;5013912;28;20439;-62
2021/12/02 04:52:16;;;;;;;1.93;0.80;;;6.90;99.90;;;;;;5015145;28;20688;-61
2021/12/02 04:54:42;;;;;;;1.73;1.10;;;6.90;99.90;;;;;;5015260;28;20183;-60
2021/12/02 04:57:08;;;;;;;1.33;0.80;;;6.90;99.90;;;;;;5015598;28;20409;-62
2021/12/02 04:59:33;;;;;;;1.80;0.73;;;6.90;99.90;;;;;;5014478;28;20267;-62
2021/12/02 05:01:59;;;;;;;1.07;0.83;;;6.70;99.90;;;;;;5014663;28;20164;-62
2021/12/02 05:04:25;;;;;;;1.20;0.80;;;6.60;99.90;;;;;;5013990;28;20604;-62
2021/12/02 05:06:50;;;;;;;1.00;0.73;;;6.70;99.90;;;;;;5015158;28;20200;-61
2021/12/02 05:09:16;;;;;;;1.33;0.80;;;6.50;99.90;;;;;;5014874;28;20243;-62
2021/12/02 05:11:41;;;;;;;0.80;0.63;;;6.60;99.90;;;;;;5014173;28;20165;-62
2021/12/02 05:14:08;;;;;;;1.23;0.90;;;6.70;99.90;;;;;;5003635;28;20221;-62
2021/12/02 05:16:35;;;;;;;2.40;0.90;;;6.70;99.90;;;;;;5014265;28;20175;-62
2021/12/02 05:19:01;;;;;;;1.70;0.80;;;6.70;99.90;;;;;;5014038;28;20552;-62
2021/12/02 05:21:27;;;;;;;2.17;1.40;;;6.70;99.90;;;;;;4996634;28;20427;-62
2021/12/02 05:23:55;;;;;;;1.57;0.80;;;6.90;99.90;;;;;;5014532;28;20164;-62
2021/12/02 05:26:22;;;;;;;1.83;0.70;;;7.00;99.90;;;;;;5011550;28;20174;-62
2021/12/02 05:28:48;;;;;;;1.63;0.80;;;6.70;99.90;;;;;;5014681;28;20398;-61
2021/12/02 05:31:14;;;;;;;1.20;0.80;;;6.50;99.90;;;;;;5014046;28;20469;-62
2021/12/02 05:33:39;;;;;;;1.20;0.80;;;6.50;99.90;;;;;;5014128;28;20172;-62
2021/12/02 05:36:05;;;;;;;1.97;1.03;;;6.50;99.90;;;;;;5013994;28;20173;-61
2021/12/02 05:38:31;;;;;;;0.80;0.50;;;6.70;99.90;;;;;;5014540;28;20669;-61
2021/12/02 05:40:56;;;;;;;2.83;1.03;;;6.80;99.90;;;;;;5014333;28;20188;-62
2021/12/02 05:43:22;;;;;;;1.53;0.70;;;6.50;99.90;;;;;;5014375;28;20246;-61
2021/12/02 05:45:48;;;;;;;1.87;0.90;;;6.40;99.90;;;;;;5014241;28;20603;-61
2021/12/02 05:48:13;;;;;;;1.10;0.87;;;6.30;99.90;;;;;;5014160;28;20536;-62
2021/12/02 05:50:39;;;;;;;1.87;0.87;;;6.30;99.90;;;;;;5013657;28;20225;-60
2021/12/02 05:53:05;;;;;;;1.33;1.00;;;6.40;99.90;;;;;;4980524;28;20234;-62
2021/12/02 05:55:31;;;;;;;3.37;0.90;;;6.40;99.90;;;;;;4996246;28;20423;-62
2021/12/02 05:57:57;;;;;;;1.60;0.87;;;6.50;99.90;;;;;;5014356;28;20203;-62
2021/12/02 06:00:22;;;;;;;1.03;0.80;;;6.70;99.90;;;;;;5013578;28;20192;-62
2021/12/02 06:02:48;;;;;;;2.43;1.13;;;6.70;99.90;;;;;;5013855;28;20168;-61
2021/12/02 06:05:19;;;;;;;2.83;1.43;;;6.60;99.90;;;;;;5013909;28;20671;-62
2021/12/02 06:07:45;;;;;;;1.90;0.60;;;6.60;99.90;;;;;;5014018;28;20199;-61
2021/12/02 06:10:11;;;;;;;1.67;0.90;;;6.60;99.90;;;;;;5013634;28;20424;-62
2021/12/02 06:12:36;;;;;;;2.03;1.00;;;6.60;99.90;;;;;;5013750;28;20409;-60
2021/12/02 06:15:03;;;;;;;2.93;0.90;;;6.60;99.90;;;;;;5013410;28;20923;-62
2021/12/02 06:17:28;;;;;;;1.47;0.87;;;6.50;99.90;;;;;;5013054;28;20196;-62
2021/12/02 06:19:54;;;;;;;1.93;0.80;;;6.40;99.90;;;;;;5013317;28;20456;-63
2021/12/02 06:22:19;;;;;;;2.90;0.90;;;6.50;99.90;;;;;;5013437;28;20170;-60
2021/12/02 06:25:05;;;;;;;1.10;0.80;;;6.30;99.90;;;;;;5013651;28;20667;-61
2021/12/02 06:27:31;;;;;;;1.47;0.77;;;6.30;99.90;;;;;;5013587;28;20156;-61
2021/12/02 06:29:56;;;;;;;1.97;0.90;;;6.30;99.90;;;;;;4995722;28;20423;-61
2021/12/02 06:32:22;;;;;;;1.33;0.80;;;6.30;99.90;;;;;;4995856;28;20546;-61
2021/12/02 06:34:48;;;;;;;1.70;0.80;;;6.30;99.90;;;;;;4995374;28;20548;-60
2021/12/02 06:37:13;;;;;;;1.50;0.87;;;6.30;99.90;;;;;;5013427;28;20164;-61
2021/12/02 06:39:39;;;;;;;1.77;1.00;;;6.00;99.90;;;;;;5013650;28;20688;-61
2021/12/02 06:42:05;;;;;;;1.40;0.80;;;6.00;99.90;;;;;;5014075;28;20259;-62
2021/12/02 06:44:32;;;;;;;1.03;0.90;;;6.10;99.90;;;;;;4995756;28;20199;-61
2021/12/02 06:46:58;;;;;;;2.37;0.90;;;6.10;99.90;;;;;;5013344;28;20255;-61
2021/12/02 06:49:24;;;;;;;1.60;0.93;;;6.10;99.90;;;;;;4994203;28;20876;-58
2021/12/02 06:51:50;;;;;;;2.97;1.30;;;6.10;99.90;;;;;;5013486;28;20164;-62
2021/12/02 06:54:15;;;;;;;2.07;1.63;;;5.90;99.90;;;;;;5014002;28;20180;-61
2021/12/02 06:56:41;;;;;;;1.20;1.10;;;5.60;99.90;;;;;;5013132;28;20200;-61
2021/12/02 06:59:07;;;;;;;2.50;0.90;;;5.70;99.90;;;;;;4996236;28;20200;-62
2021/12/02 07:01:34;;;;;;;0.83;0.83;;;5.60;99.90;;;;;;4995199;28;20168;-62
2021/12/02 07:04:00;;;;;;;1.13;1.00;;;5.70;99.90;;;;;;5012735;28;20180;-60
2021/12/02 07:06:26;;;;;;;1.40;1.03;;;5.90;99.90;;;;;;5013591;28;20979;-62
2021/12/02 07:08:51;;;;;;;1.57;1.27;;;6.10;99.90;;;;;;5013506;28;20211;-62
2021/12/02 07:11:17;;;;;;;1.20;1.10;;;6.00;99.90;;;;;;5013393;28;20230;-62
2021/12/02 07:13:43;;;;;;;1.10;1.00;;;6.10;99.90;;;;;;5013653;28;20183;-62
2021/12/02 07:16:08;;;;;;;2.80;1.57;;;6.00;99.90;;;;;;5012240;28;20218;-60
2021/12/02 07:18:42;;;;;;;1.20;1.00;;;6.00;99.90;;;;;;5013270;28;20666;-61
2021/12/02 07:21:07;;;;;;;1.47;1.10;;;6.00;99.90;;;;;;5013357;28;20252;-60
2021/12/02 07:23:33;;;;;;;0.80;0.80;;;6.10;99.90;;;;;;4977993;28;20561;-60
2021/12/02 07:25:59;;;;;;;1.20;0.90;;;6.10;99.90;;;;;;5012013;28;20192;-62
2021/12/02 07:28:25;;;;;;;1.40;1.03;;;6.00;99.90;;;;;;4994897;28;20164;-61
2021/12/02 07:30:54;;;;;;;2.80;1.10;;;5.90;99.90;;;;;;4998795;28;20446;-62
2021/12/02 07:33:21;;;;;;;1.00;0.90;;;5.80;99.90;;;;;;5016346;28;20421;-61
2021/12/02 07:35:47;;;;;;;2.10;1.10;;;5.60;99.90;;;;;;4999319;28;20415;-61
2021/12/02 07:38:13;;;;;;;1.20;0.87;;;5.60;99.90;;;;;;5015529;28;20419;-61
2021/12/02 07:40:41;;;;;;;4.73;0.97;;;5.80;99.90;;;;;;5016258;28;20478;-60
2021/12/02 07:43:07;;;;;;;2.10;1.37;;;6.00;99.90;;;;;;5016123;28;20445;-56
2021/12/02 07:45:36;;;;;;;1.50;1.40;;;6.00;99.90;;;;;;4998735;28;20877;-60
2021/12/02 07:48:04;;;;;;;2.27;1.07;;;5.90;99.90;;;;;;4999360;28;20419;-64
2021/12/02 07:50:30;;;;;;;4.83;1.20;;;5.90;99.90;;;;;;5014655;28;20439;-61
2021/12/02 07:52:59;;;;;;;1.30;1.20;;;5.90;99.90;;;;;;4998564;28;20474;-59
2021/12/02 07:55:26;;;;;;;1.60;0.83;;;5.90;99.90;;;;;;5016051;28;20498;-60
2021/12/02 07:57:53;;;;;;;1.50;1.20;;;5.90;99.90;;;;;;4997645;28;20447;-62
2021/12/02 08:00:25;;;;;;;2.10;1.27;;;5.90;99.90;;;;;;5015814;28;20493;-61
2021/12/02 08:02:52;;;;;;;3.00;2.20;;;5.90;99.90;;;;;;4998806;28;20171;-61
2021/12/02 08:05:22;;;;;;;1.77;1.50;;;5.80;99.90;;;;;;4978108;28;20456;-60
2021/12/02 08:07:48;;;;;;;2.60;0.90;;;6.00;99.90;;;;;;4990158;28;20504;-59
2021/12/02 08:10:15;;;;;;;1.70;1.57;;;5.90;99.90;;;;;;4998160;28;20878;-62
2021/12/02 08:12:47;;;;;;;1.23;0.83;;;6.00;99.90;;;;;;5016079;28;20409;-58
2021/12/02 08:15:15;;;;;;;4.23;0.93;;;6.00;99.90;;;;;;4982950;28;20415;-61
2021/12/02 08:17:41;;;;;;;1.17;1.07;;;6.00;99.90;;;;;;5014912;28;20469;-62
2021/12/02 08:20:07;;;;;;;2.30;1.20;;;6.10;99.90;;;;;;5009791;23;20530;-63
2021/12/02 08:22:33;;;;;;;1.63;1.10;;;6.20;99.90;;;;;;4989595;28;20268;-64
2021/12/02 08:24:59;;;;;;;1.13;0.90;;;6.30;99.90;;;;;;4999095;28;20466;-62
2021/12/02 08:27:25;;;;;;;1.37;1.13;;;6.50;99.90;;;;;;4983366;28;20168;-64
2021/12/02 08:29:51;;;;;;;1.47;1.20;;;6.60;99.90;;;;;;5015879;28;20958;-63
2021/12/02 08:32:17;;;;;;;2.30;1.00;;;6.70;99.90;;;;;;5015566;28;20412;-63
2021/12/02 08:34:42;;;;;;;2.13;1.30;;;6.60;99.90;;;;;;5016318;28;20415;-62
2021/12/02 08:37:10;;;;;;;2.80;1.20;;;6.80;99.90;;;;;;5015675;28;20172;-64
2021/12/02 08:39:35;;;;;;;1.90;1.33;;;6.80;99.90;;;;;;4997859;28;20174;-60
2021/12/02 08:42:03;;;;;;;1.10;1.00;;;6.90;99.90;;;;;;5015991;28;20463;-60
2021/12/02 08:44:31;;;;;;;1.97;1.40;;;7.10;99.90;;;;;;5015363;28;20193;-63
2021/12/02 08:46:56;;;;;;;2.20;1.53;;;7.30;99.90;;;;;;5015627;28;20408;-62
2021/12/02 08:49:23;;;;;;;1.30;1.20;;;7.20;99.90;;;;;;5016381;28;20414;-61
2021/12/02 08:51:51;;;;;;;1.73;1.60;;;7.10;99.90;;;;;;4999086;28;20165;-61
2021/12/02 08:54:17;;;;;;;1.40;1.30;;;7.20;99.90;;;;;;5016180;28;20837;-61
2021/12/02 08:56:43;;;;;;;2.30;1.67;;;7.30;99.90;;;;;;5015822;28;20408;-60
2021/12/02 08:59:09;;;;;;;1.70;1.60;;;7.40;99.90;;;;;;5015931;28;20788;-60
2021/12/02 09:01:34;;;;;;;2.00;1.30;;;7.20;99.90;;;;;;5015077;28;20191;-60
2021/12/02 09:04:04;;;;;;;1.30;1.10;;;7.00;99.90;;;;;;5015754;28;20168;-61
2021/12/02 09:06:31;;;;;;;1.97;1.50;;;6.90;99.90;;;;;;5014347;28;20548;-62
2021/12/02 09:08:58;;;;;;;2.07;1.20;;;6.90;99.90;;;;;;4998105;28;20404;-62
2021/12/02 09:11:25;;;;;;;2.30;1.53;;;7.10;99.90;;;;;;4997983;28;20415;-63
2021/12/02 09:13:56;;;;;;;2.43;1.50;;;7.30;99.90;;;;;;5015392;28;20432;-62
2021/12/02 09:16:22;;;;;;;2.40;1.20;;;7.50;99.90;;;;;;5015788;28;20410;-63
2021/12/02 09:18:48;;;;;;;5.73;1.67;;;7.60;99.90;;;;;;5014317;28;20488;-63
2021/12/02 09:21:14;;;;;;;1.40;1.17;;;7.50;99.90;;;;;;5012900;28;20859;-62
2021/12/02 09:23:39;;;;;;;1.53;1.20;;;7.60;99.90;;;;;;5015494;28;20638;-63
2021/12/02 09:26:05;;;;;;;1.40;1.20;;;7.60;99.90;;;;;;4997509;28;20192;-63
2021/12/02 09:28:31;;;;;;;1.87;1.30;;;7.60;99.90;;;;;;4997752;28;20182;-62
2021/12/02 09:30:57;;;;;;;1.30;1.00;;;7.60;99.90;;;;;;5015586;28;20661;-62
2021/12/02 09:33:22;;;;;;;3.20;1.10;;;7.50;99.90;;;;;;5014656;28;20417;-61
2021/12/02 09:35:48;;;;;;;2.27;1.40;;;7.60;99.90;;;;;;5015225;28;20405;-61
2021/12/02 09:38:14;;;;;;;4.57;1.23;;;7.90;99.90;;;;;;5015016;28;20253;-61
2021/12/02 09:40:41;;;;;;;1.33;1.10;;;7.90;99.90;;;;;;5014816;28;20299;-61
2021/12/02 09:43:10;;;;;;;3.87;1.37;;;8.00;99.90;;;;;;5014900;28;20248;-62
2021/12/02 09:45:37;;;;;;;2.10;1.60;;;8.00;99.90;;;;;;5014589;28;20471;-63
2021/12/02 09:48:03;;;;;;;2.03;1.23;;;8.00;99.90;;;;;;5014864;28;20488;-62
2021/12/02 09:50:36;;;;;;;2.70;1.37;;;7.80;99.90;;;;;;5013095;28;20441;-61
2021/12/02 09:53:12;;;;;;;1.90;1.50;;;8.00;99.90;;;;;;4998062;28;20402;-63
2021/12/02 09:55:50;;;;;;;1.07;1.00;;;7.60;99.90;;;;;;5014622;28;20394;-61
2021/12/02 09:58:25;;;;;;;2.03;1.80;;;7.70;99.90;;;;;;5014631;28;20395;-62
2021/12/02 10:00:57;;;;;;;1.30;1.20;;;7.50;99.90;;;;;;5014373;28;20839;-62
2021/12/02 10:06:23;;;;;;;1.90;1.43;;;7.50;99.90;;;;;;5014432;28;20452;-62
2021/12/02 10:11:54;;;;;;;2.70;2.07;;;7.40;99.90;;;;;;5014668;28;21034;-64
2021/12/02 10:14:26;;;;;;;4.20;1.87;;;7.20;99.90;;;;;;5014612;28;20455;-63
2021/12/02 10:17:05;;;;;;;2.10;1.40;;;6.40;99.90;;;;;;5014666;28;20869;-61
2021/12/02 10:19:31;;;;;;;1.83;1.10;;;6.00;99.90;;;;;;5014113;28;20753;-62
2021/12/02 10:22:04;;;;;;;2.97;1.60;;;5.90;99.90;;;;;;4996624;28;20442;-58
2021/12/02 10:24:30;;;;;;;2.10;1.60;;;5.90;99.90;;;;;;5014106;28;20195;-64
2021/12/02 10:27:04;;;;;;;1.50;1.37;;;5.90;99.90;;;;;;5014132;28;20407;-61
2021/12/02 10:29:33;;;;;;;2.57;1.30;;;5.80;99.90;;;;;;5014361;28;20382;-63
2021/12/02 10:32:07;;;;;;;1.10;1.00;;;5.80;99.90;;;;;;5014119;28;20419;-62
2021/12/02 10:34:48;;;;;;;2.03;1.70;;;5.60;99.90;;;;;;5014164;28;20493;-61
2021/12/02 10:37:14;;;;;;;2.17;1.60;;;5.70;99.90;;;;;;4996952;28;20402;-62
2021/12/02 10:39:40;;;;;;;1.20;1.10;;;5.80;99.90;;;;;;4996709;28;20892;-62
2021/12/02 10:42:08;;;;;;;1.43;1.10;;;5.90;99.90;;;;;;5013964;28;20407;-61
2021/12/02 10:44:35;;;;;;;1.40;1.20;;;6.00;99.90;;;;;;5013854;28;20579;-62
2021/12/02 10:47:01;;;;;;;1.63;0.97;;;5.90;99.90;;;;;;5013662;28;20487;-62
2021/12/02 10:49:32;;;;;;;1.40;1.30;;;6.00;99.90;;;;;;5013626;28;20440;-63
2021/12/02 10:52:01;;;;;;;1.50;1.10;;;6.10;99.90;;;;;;4995880;28;20470;-63
2021/12/02 10:54:32;;;;;;;1.73;1.63;;;6.10;99.90;;;;;;5013754;28;20432;-63
2021/12/02 10:57:05;;;;;;;2.03;1.60;;;6.40;99.90;;;;;;5013808;28;20479;-62
2021/12/02 10:59:44;;;;;;;1.17;1.03;;;6.40;99.90;;;;;;5013760;28;20381;-63
2021/12/02 11:02:28;;;;;;;1.50;1.40;;;6.50;99.90;;;;;;4997460;28;20385;-62
2021/12/02 11:05:02;;;;;;;1.43;1.33;;;6.40;99.90;;;;;;5017345;28;20991;-61
2021/12/02 11:07:34;;;;;;;1.40;1.30;;;6.40;99.90;;;;;;5000281;28;20796;-62
2021/12/02 11:10:14;;;;;;;1.00;0.90;;;6.30;99.90;;;;;;5017112;28;20437;-62
2021/12/02 11:12:42;;;;;;;1.23;1.13;;;6.20;99.90;;;;;;4999279;28;20402;-62
2021/12/02 11:15:16;;;;;;;0.80;0.80;;;6.00;99.90;;;;;;5007952;28;20454;-62
2021/12/02 11:17:43;;;;;;;1.10;0.90;;;5.70;99.90;;;;;;4997799;28;20407;-63
2021/12/02 11:20:18;;;;;;;1.43;1.00;;;5.50;99.90;;;;;;5000341;28;20558;-63
2021/12/02 11:22:45;;;;;;;1.60;1.07;;;5.50;99.90;;;;;;4997730;28;20805;-62
2021/12/02 11:25:11;;;;;;;1.37;1.00;;;5.40;99.90;;;;;;4980520;28;20542;-63
2021/12/02 11:27:47;;;;;;;2.80;1.60;;;5.50;99.90;;;;;;4997823;28;20734;-62
2021/12/02 11:30:31;;;;;;;2.37;1.23;;;5.40;99.90;;;;;;4997060;28;20509;-60
2021/12/02 11:33:01;;;;;;;2.00;1.33;;;5.70;99.90;;;;;;4997399;28;20474;-62
2021/12/02 11:35:40;;;;;;;1.13;1.00;;;5.60;99.90;;;;;;4997659;28;20429;-62
2021/12/02 11:38:19;;;;;;;1.50;1.07;;;5.60;99.90;;;;;;4998042;28;20399;-61
2021/12/02 11:40:49;;;;;;;1.30;1.20;;;5.70;99.90;;;;;;4989462;28;20477;-63
2021/12/02 11:43:18;;;;;;;1.30;1.00;;;5.70;99.90;;;;;;5017034;28;20502;-61
2021/12/02 11:45:49;;;;;;;1.30;1.17;;;5.90;99.90;;;;;;5016774;28;20447;-62
2021/12/02 11:48:20;;;;;;;1.50;1.20;;;5.90;99.90;;;;;;5016255;28;20487;-63
2021/12/02 11:50:49;;;;;;;1.97;1.40;;;6.10;99.90;;;;;;5016866;28;20423;-61
2021/12/02 11:53:21;;;;;;;1.60;1.10;;;6.30;99.90;;;;;;5017229;28;20408;-62
2021/12/02 11:55:47;;;;;;;1.27;1.07;;;6.50;99.90;;;;;;4999653;28;20408;-63
2021/12/02 11:58:13;;;;;;;1.10;1.00;;;6.60;99.90;;;;;;5017130;28;20897;-62
2021/12/02 12:00:39;;;;;;;1.30;1.20;;;6.60;99.90;;;;;;5016878;28;20424;-62
2021/12/02 12:03:13;;;;;;;1.83;1.40;;;6.70;99.90;;;;;;5016394;28;20171;-63
2021/12/02 12:05:41;;;;;;;2.60;1.87;;;6.70;99.90;;;;;;5016814;28;20188;-63
2021/12/02 12:08:07;;;;;;;1.60;1.50;;;6.90;99.90;;;;;;5017588;28;20406;-64
2021/12/02 12:10:39;;;;;;;1.47;1.37;;;6.80;99.90;;;;;;5016211;28;20423;-63
2021/12/02 12:13:21;;;;;;;1.23;1.13;;;6.80;99.90;;;;;;4982302;28;20389;-63
2021/12/02 12:15:48;;;;;;;1.37;1.20;;;6.70;99.90;;;;;;5015915;28;20422;-63
2021/12/02 12:18:25;;;;;;;1.53;1.10;;;6.70;99.90;;;;;;4981908;28;20416;-63
2021/12/02 12:21:11;;;;;;;2.47;1.20;;;6.70;99.90;;;;;;4998501;28;20539;-63
2021/12/02 12:23:45;;;;;;;1.53;1.27;;;6.70;99.90;;;;;;5016273;28;20396;-62
2021/12/02 12:26:21;;;;;;;1.53;1.40;;;6.70;99.90;;;;;;5015711;28;20450;-61
2021/12/02 12:29:05;;;;;;;2.60;1.30;;;6.90;99.90;;;;;;5015704;28;20392;-60
2021/12/02 12:31:35;;;;;;;4.03;1.40;;;7.00;99.90;;;;;;5015682;28;20472;-61
2021/12/02 12:34:01;;;;;;;1.50;1.40;;;6.90;99.90;;;;;;5015455;28;20404;-63
2021/12/02 12:36:46;;;;;;;1.70;1.47;;;6.90;99.90;;;;;;5015366;28;20496;-63
2021/12/02 12:39:18;;;;;;;1.73;1.40;;;6.80;99.90;;;;;;5014538;28;20415;-62
2021/12/02 12:42:04;;;;;;;1.83;1.43;;;6.90;99.90;;;;;;4981877;28;20437;-62
2021/12/02 12:45:04;;;;;;;1.83;1.30;;;6.80;99.90;;;;;;5015732;28;20415;-63
2021/12/02 12:47:43;;;;;;;1.20;1.10;;;6.80;99.90;;;;;;4956823;28;20411;-62
2021/12/02 12:50:39;;;;;;;1.50;1.40;;;6.70;99.90;;;;;;5015823;28;20490;-63
2021/12/02 12:53:05;;;;;;;2.00;1.80;;;6.70;99.90;;;;;;4999651;28;20785;-63
2021/12/02 12:55:32;;;;;;;2.00;1.43;;;6.70;99.90;;;;;;5015502;28;20395;-62
2021/12/02 12:58:19;;;;;;;1.77;1.60;;;6.60;99.90;;;;;;5015629;28;20231;-61
2021/12/02 13:00:52;;;;;;;2.30;2.10;;;6.60;99.90;;;;;;5014320;28;20522;-63
2021/12/02 13:03:27;;;;;;;2.80;1.93;;;6.70;99.90;;;;;;5015817;28;20405;-62
2021/12/02 13:06:00;;;;;;;2.40;1.87;;;6.90;99.90;;;;;;4998246;28;20798;-62
2021/12/02 13:08:36;;;;;;;3.30;1.50;;;7.10;99.90;;;;;;4998181;28;20409;-63
2021/12/02 13:11:10;;;;;;;1.63;1.53;;;7.10;99.90;;;;;;5015314;28;20420;-63
2021/12/02 13:13:37;;;;;;;2.70;1.60;;;7.30;99.90;;;;;;5015023;28;20747;-63
2021/12/02 13:16:10;;;;;;;2.70;1.90;;;7.30;99.90;;;;;;5014183;28;20405;-64
2021/12/02 13:18:40;;;;;;;1.97;1.77;;;7.40;99.90;;;;;;5012710;28;20508;-63
2021/12/02 13:21:24;;;;;;;3.30;2.17;;;7.40;99.90;;;;;;4997096;28;20460;-63
2021/12/02 13:23:59;;;;;;;2.27;1.70;;;7.30;99.90;;;;;;4997477;28;20405;-63
2021/12/02 13:26:29;;;;;;;1.90;1.63;;;7.20;99.90;;;;;;5015175;28;20479;-63
2021/12/02 13:29:02;;;;;;;2.10;1.97;;;7.10;99.90;;;;;;5015933;28;20500;-63
2021/12/02 13:31:29;;;;;;;3.23;2.30;;;6.80;99.90;;;;;;5014320;28;20506;-63
2021/12/02 13:33:59;;;;;;;2.27;1.90;;;7.00;99.90;;;;;;5015095;28;20972;-62
2021/12/02 13:36:37;;;;;;;3.80;1.90;;;7.10;99.90;;;;;;5014911;28;20388;-62